Time;durP1;ratioP1;P1;durP2;ratioP2;P2;SDS_P1;SDS_P2;PMS_P1;PMS_P2;Temp;Humidity;BMP_temperature;BMP_pressure;BME280_temperature;BME280_humidity;BME280_pressure;Samples;Min_cycle;Max_cycle;Signal;HPM_P1;HPM_P2
2021/09/07 00:02:21;;;;;;;10.32;9.27;;;;;;;17.72;65.31;96324.69;5021415;28;20226;-85
2021/09/07 00:04:47;;;;;;;10.57;8.85;;;;;;;17.66;65.70;96328.91;5021191;28;20234;-85
2021/09/07 00:07:13;;;;;;;9.88;8.90;;;;;;;17.63;65.25;96331.88;5020442;28;20230;-84
2021/09/07 00:09:40;;;;;;;10.70;9.57;;;;;;;17.61;65.52;96323.47;5020342;28;20207;-83
2021/09/07 00:12:07;;;;;;;10.13;9.23;;;;;;;17.64;65.46;96319.66;5019619;28;20222;-84
2021/09/07 00:14:33;;;;;;;9.98;8.98;;;;;;;17.57;65.81;96319.66;5019906;28;20206;-85
2021/09/07 00:17:00;;;;;;;9.57;8.68;;;;;;;17.56;65.89;96312.84;5020914;28;20760;-84
2021/09/07 00:19:28;;;;;;;10.18;8.90;;;;;;;17.68;65.77;96319.09;5021002;28;20211;-83
2021/09/07 00:21:54;;;;;;;10.88;8.63;;;;;;;17.77;65.18;96320.47;5020183;28;20210;-83
2021/09/07 00:24:20;;;;;;;10.07;9.07;;;;;;;17.78;65.00;96319.47;5020175;28;20226;-81
2021/09/07 00:26:47;;;;;;;10.02;8.90;;;;;;;17.74;65.16;96320.06;5018444;28;20708;-81
2021/09/07 00:29:16;;;;;;;9.70;8.70;;;;;;;17.74;65.20;96320.06;5019885;28;20207;-82
2021/09/07 00:31:42;;;;;;;9.55;8.65;;;;;;;17.68;65.16;96310.47;5019098;28;20210;-81
2021/09/07 00:34:09;;;;;;;9.70;8.80;;;;;;;17.67;65.14;96307.06;5018733;28;20199;-82
2021/09/07 00:36:36;;;;;;;9.70;8.80;;;;;;;17.68;65.12;96306.06;5017612;28;20226;-83
2021/09/07 00:39:03;;;;;;;9.18;8.27;;;;;;;17.70;64.77;96305.88;5016410;28;20700;-82
2021/09/07 00:41:29;;;;;;;9.20;8.30;;;;;;;17.74;64.46;96307.03;5016548;28;20202;-82
2021/09/07 00:43:56;;;;;;;9.38;8.27;;;;;;;17.74;64.10;96305.25;5016608;28;20203;-81
2021/09/07 00:46:22;;;;;;;8.38;7.63;;;;;;;17.77;64.45;96304.03;5016340;28;20223;-81
2021/09/07 00:48:49;;;;;;;8.85;7.82;;;;;;;17.74;64.27;96302.63;5015810;28;20218;-81
2021/09/07 00:51:15;;;;;;;9.38;8.55;;;;;;;17.70;64.45;96293.66;5015295;28;20206;-82
2021/09/07 00:53:43;;;;;;;8.93;8.02;;;;;;;17.68;64.15;96298.25;5014855;28;20210;-82
2021/09/07 00:56:11;;;;;;;9.27;7.72;;;;;;;17.61;64.38;96298.22;5014317;28;20219;-81
2021/09/07 00:58:39;;;;;;;8.02;7.22;;;;;;;17.64;64.28;96298.81;5014312;28;20203;-82
2021/09/07 01:01:06;;;;;;;10.55;7.70;;;;;;;17.64;64.23;96301.44;5014824;28;20198;-81
2021/09/07 01:03:32;;;;;;;8.70;7.72;;;;;;;17.58;64.53;96308.25;5014777;28;20602;-81
2021/09/07 01:05:59;;;;;;;8.93;8.13;;;;;;;17.50;64.39;96298.06;5013186;28;20285;-81
2021/09/07 01:08:25;;;;;;;8.93;8.13;;;;;;;17.42;64.76;96300.84;5003432;28;20206;-81
2021/09/07 01:10:53;;;;;;;8.48;7.68;;;;;;;17.35;64.79;96303.44;5014684;28;20234;-83
2021/09/07 01:13:20;;;;;;;8.80;7.78;;;;;;;17.27;65.04;96298.47;5000896;28;20200;-82
2021/09/07 01:15:48;;;;;;;8.00;7.22;;;;;;;17.31;64.98;96298.88;5026014;28;20197;-81
2021/09/07 01:18:14;;;;;;;8.38;7.65;;;;;;;17.13;66.08;96299.44;5034619;28;20268;-81
2021/09/07 01:20:41;;;;;;;8.90;8.10;;;;;;;17.03;65.77;96286.84;5034484;28;20202;-81
2021/09/07 01:23:07;;;;;;;8.80;8.00;;;;;;;16.96;65.98;96290.41;5035321;28;20213;-82
2021/09/07 01:25:36;;;;;;;8.48;7.72;;;;;;;16.85;66.68;96284.00;5034989;28;20228;-82
2021/09/07 01:28:02;;;;;;;11.95;8.43;;;;;;;16.87;67.04;96276.81;5015777;28;20227;-82
2021/09/07 01:30:30;;;;;;;8.23;7.50;;;;;;;16.97;66.10;96281.63;5014938;28;20210;-81
2021/09/07 01:32:57;;;;;;;8.48;7.70;;;;;;;16.99;66.06;96279.63;5014832;28;20830;-83
2021/09/07 01:35:23;;;;;;;9.57;8.68;;;;;;;16.72;66.90;96279.59;5014178;28;20195;-84
2021/09/07 01:37:50;;;;;;;9.23;8.40;;;;;;;16.66;67.56;96274.38;5017185;28;20226;-83
2021/09/07 01:40:16;;;;;;;8.07;7.38;;;;;;;16.75;66.41;96279.19;5018038;28;20198;-85
2021/09/07 01:42:44;;;;;;;8.45;7.63;;;;;;;16.77;67.10;96274.59;5018176;28;20206;-84
2021/09/07 01:45:12;;;;;;;9.10;8.20;;;;;;;16.84;66.64;96282.41;5017756;28;20838;-81
2021/09/07 01:47:39;;;;;;;8.00;7.30;;;;;;;16.86;66.70;96270.81;5019075;28;20222;-83
2021/09/07 01:50:07;;;;;;;9.23;7.32;;;;;;;16.92;66.58;96272.63;5018408;28;20206;-84
2021/09/07 01:52:33;;;;;;;8.50;7.53;;;;;;;16.96;66.16;96272.22;5018439;28;20606;-84
2021/09/07 01:55:00;;;;;;;8.40;7.70;;;;;;;16.98;66.55;96272.81;5017896;28;20198;-84
2021/09/07 01:57:26;;;;;;;8.20;7.40;;;;;;;16.97;66.00;96268.59;5017258;28;20284;-84
2021/09/07 01:59:54;;;;;;;8.43;7.63;;;;;;;16.94;65.54;96272.41;5018164;28;20268;-84
2021/09/07 02:02:21;;;;;;;9.10;8.05;;;;;;;16.87;65.60;96271.63;5017176;28;20577;-81
2021/09/07 02:04:47;;;;;;;9.05;8.25;;;;;;;16.86;65.90;96283.00;5017008;28;20625;-81
2021/09/07 02:07:14;;;;;;;8.48;7.25;;;;;;;16.88;66.31;96281.81;5017924;28;20743;-81
2021/09/07 02:09:40;;;;;;;8.13;7.32;;;;;;;16.92;66.25;96290.03;5017868;28;20203;-82
2021/09/07 02:12:07;;;;;;;8.57;7.70;;;;;;;16.85;66.09;96290.03;5021576;28;20233;-81
2021/09/07 02:14:34;;;;;;;8.70;7.78;;;;;;;16.81;65.79;96283.59;5017152;28;20701;-81
2021/09/07 02:17:01;;;;;;;8.02;7.22;;;;;;;16.82;65.84;96280.00;5017706;28;20233;-82
2021/09/07 02:19:28;;;;;;;8.02;7.13;;;;;;;16.86;65.54;96280.41;5017454;28;20234;-81
2021/09/07 02:21:54;;;;;;;8.73;7.53;;;;;;;16.77;65.80;96282.38;5017192;28;20202;-81
2021/09/07 02:24:21;;;;;;;8.13;7.43;;;;;;;16.78;66.02;96278.78;5016502;28;20230;-81
2021/09/07 02:26:47;;;;;;;7.78;7.03;;;;;;;16.86;65.49;96280.41;5017478;28;20257;-82
2021/09/07 02:29:14;;;;;;;7.45;6.75;;;;;;;16.83;65.79;96273.00;5017467;28;20206;-81
2021/09/07 02:31:40;;;;;;;8.23;7.43;;;;;;;16.83;65.63;96281.59;5018979;28;20221;-81
2021/09/07 02:34:08;;;;;;;8.98;7.22;;;;;;;16.81;66.02;96281.00;5017610;28;20210;-82
2021/09/07 02:36:37;;;;;;;8.93;7.40;;;;;;;16.71;66.12;96285.00;5018619;28;20219;-82
2021/09/07 02:39:03;;;;;;;8.02;7.22;;;;;;;16.72;65.78;96284.00;5017545;28;20310;-81
2021/09/07 02:41:30;;;;;;;9.55;7.25;;;;;;;16.75;65.83;96281.78;5017128;28;20207;-82
2021/09/07 02:43:56;;;;;;;8.02;7.22;;;;;;;16.70;65.71;96276.41;5016522;28;20210;-81
2021/09/07 02:46:25;;;;;;;7.53;6.82;;;;;;;16.55;66.32;96275.72;5016564;28;20223;-81
2021/09/07 02:48:52;;;;;;;8.07;7.28;;;;;;;16.50;66.07;96280.72;5015994;28;20213;-82
2021/09/07 02:51:19;;;;;;;8.25;7.50;;;;;;;16.48;67.03;96283.50;5016505;28;20203;-83
2021/09/07 02:53:46;;;;;;;11.18;7.55;;;;;;;16.44;66.95;96266.69;5016462;28;20207;-81
2021/09/07 02:56:12;;;;;;;8.48;7.65;;;;;;;16.48;66.74;96273.13;5016147;28;20712;-81
2021/09/07 02:58:39;;;;;;;7.75;7.05;;;;;;;16.48;67.01;96269.72;5015827;28;20644;-81
2021/09/07 03:01:05;;;;;;;8.23;7.47;;;;;;;16.47;67.07;96273.31;5015660;28;20712;-81
2021/09/07 03:03:33;;;;;;;7.82;7.13;;;;;;;16.45;66.81;96270.09;5015618;28;20211;-82
2021/09/07 03:06:01;;;;;;;7.93;7.13;;;;;;;16.47;66.80;96268.91;5015909;28;20651;-82
2021/09/07 03:08:29;;;;;;;7.95;7.20;;;;;;;16.51;66.85;96269.31;5017035;28;20728;-83
2021/09/07 03:10:55;;;;;;;8.50;7.35;;;;;;;16.46;67.57;96269.09;5016044;28;20696;-82
2021/09/07 03:13:22;;;;;;;8.23;7.50;;;;;;;16.51;66.81;96270.13;5017659;28;20205;-81
2021/09/07 03:15:48;;;;;;;7.85;7.15;;;;;;;16.50;67.11;96273.72;5032901;28;20198;-81
2021/09/07 03:18:15;;;;;;;7.97;7.25;;;;;;;16.51;67.11;96271.94;5037782;28;20227;-82
2021/09/07 03:20:43;;;;;;;8.23;7.53;;;;;;;16.50;67.19;96275.53;5036728;28;20242;-81
2021/09/07 03:23:09;;;;;;;8.05;7.35;;;;;;;16.53;66.95;96273.34;5036378;28;20210;-81
2021/09/07 03:25:37;;;;;;;7.80;7.10;;;;;;;16.52;66.59;96265.72;5035389;28;20612;-82
2021/09/07 03:28:04;;;;;;;7.72;7.10;;;;;;;16.44;67.22;96266.69;5035294;28;20230;-82
2021/09/07 03:30:31;;;;;;;7.85;7.07;;;;;;;16.43;66.99;96265.09;5034967;28;20213;-81
2021/09/07 03:32:57;;;;;;;8.48;6.82;;;;;;;16.49;66.86;96266.91;5035515;28;20206;-81
2021/09/07 03:35:24;;;;;;;7.78;7.07;;;;;;;16.46;67.02;96264.69;5035323;28;20202;-82
2021/09/07 03:37:50;;;;;;;8.50;7.70;;;;;;;16.34;67.10;96266.28;5035896;28;20224;-82
2021/09/07 03:40:17;;;;;;;8.07;7.35;;;;;;;16.40;67.32;96262.88;5035161;28;20206;-80
2021/09/07 03:42:45;;;;;;;9.23;6.75;;;;;;;16.39;66.70;96271.69;5035081;28;20205;-81
2021/09/07 03:45:14;;;;;;;7.60;6.90;;;;;;;16.33;67.29;96266.47;5034377;28;20229;-81
2021/09/07 03:47:41;;;;;;;9.27;7.00;;;;;;;16.25;67.38;96259.63;5036498;28;20279;-81
2021/09/07 03:50:09;;;;;;;7.75;7.05;;;;;;;16.21;67.60;96267.03;5023019;28;20208;-81
2021/09/07 03:52:35;;;;;;;7.25;6.63;;;;;;;16.24;67.59;96274.44;4995871;28;20705;-84
2021/09/07 03:55:02;;;;;;;8.27;7.50;;;;;;;16.16;68.67;96266.03;4997472;28;20682;-84
2021/09/07 03:57:29;;;;;;;8.23;7.50;;;;;;;16.11;68.54;96263.19;4998487;28;20594;-83
2021/09/07 03:59:57;;;;;;;7.40;6.70;;;;;;;16.13;68.01;96272.41;5015845;28;20207;-84
2021/09/07 04:02:23;;;;;;;7.60;6.90;;;;;;;16.13;67.61;96267.22;5016378;28;20209;-83
2021/09/07 04:04:50;;;;;;;7.65;6.95;;;;;;;16.16;67.07;96261.59;5016019;28;20218;-85
2021/09/07 04:07:18;;;;;;;7.80;7.00;;;;;;;16.08;67.91;96266.97;5015200;28;20223;-84
2021/09/07 04:09:44;;;;;;;7.88;7.05;;;;;;;16.16;67.14;96264.19;5014887;28;20202;-86
2021/09/07 04:12:11;;;;;;;7.53;6.78;;;;;;;16.19;67.41;96276.00;5011228;28;20234;-84
2021/09/07 04:14:38;;;;;;;7.25;6.55;;;;;;;16.21;67.11;96276.63;5013106;28;20233;-83
2021/09/07 04:17:18;;;;;;;7.53;6.82;;;;;;;16.28;66.90;96277.44;5011403;28;20257;-88
2021/09/07 04:19:45;;;;;;;7.70;7.00;;;;;;;16.17;67.05;96273.59;5009549;28;20674;-85
2021/09/07 04:22:11;;;;;;;7.05;6.45;;;;;;;16.11;66.93;96271.00;4995480;28;20207;-85
2021/09/07 04:24:38;;;;;;;7.57;6.90;;;;;;;16.02;67.83;96272.13;4994580;28;20338;-84
2021/09/07 04:27:04;;;;;;;8.88;6.75;;;;;;;15.94;67.63;96270.53;4995220;28;20231;-85
2021/09/07 04:29:31;;;;;;;8.35;7.32;;;;;;;15.95;67.78;96268.72;4994799;28;20199;-85
2021/09/07 04:31:57;;;;;;;10.43;7.22;;;;;;;15.92;67.86;96264.72;4994753;28;20218;-85
2021/09/07 04:34:25;;;;;;;7.90;7.10;;;;;;;15.94;67.78;96270.53;4993858;28;20214;-84
2021/09/07 04:36:51;;;;;;;9.75;6.97;;;;;;;16.00;67.67;96269.72;4995158;28;20224;-85
2021/09/07 04:39:18;;;;;;;7.35;6.63;;;;;;;16.03;67.88;96266.75;4997264;28;20206;-84
2021/09/07 04:41:45;;;;;;;7.10;6.43;;;;;;;16.11;67.29;96268.41;4998692;28;20214;-85
2021/09/07 04:44:36;;;;;;;7.25;6.55;;;;;;;16.04;67.05;96264.94;4996746;28;20203;-88
2021/09/07 04:47:03;;;;;;;7.70;7.00;;;;;;;15.85;67.64;96272.47;4995713;28;20239;-87
2021/09/07 04:49:30;;;;;;;6.90;6.30;;;;;;;15.77;68.71;96267.44;5002668;28;20203;-83
2021/09/07 04:51:57;;;;;;;7.55;6.60;;;;;;;15.87;68.67;96269.69;5010740;28;20574;-83
2021/09/07 04:54:23;;;;;;;7.45;6.82;;;;;;;15.82;68.31;96274.63;5004129;28;20202;-84
2021/09/07 04:56:50;;;;;;;7.70;7.00;;;;;;;15.87;68.16;96272.28;5008584;28;20223;-83
2021/09/07 04:59:16;;;;;;;7.82;7.03;;;;;;;15.93;68.03;96273.31;4995737;28;20617;-84
2021/09/07 05:01:43;;;;;;;7.30;6.60;;;;;;;15.88;68.25;96274.69;5021088;28;20209;-84
2021/09/07 05:04:09;;;;;;;7.78;7.00;;;;;;;15.90;68.03;96274.50;5032950;28;20202;-84
2021/09/07 05:06:37;;;;;;;7.65;6.95;;;;;;;15.85;68.55;96274.25;5010275;28;20219;-84
2021/09/07 05:09:04;;;;;;;7.95;7.15;;;;;;;15.84;68.38;96288.25;5010730;28;20210;-84
2021/09/07 05:11:30;;;;;;;7.25;6.55;;;;;;;15.86;68.36;96292.25;5011959;28;20241;-84
2021/09/07 05:13:59;;;;;;;8.35;7.63;;;;;;;15.98;67.62;96294.28;5011212;28;20203;-84
2021/09/07 05:16:25;;;;;;;7.82;7.13;;;;;;;16.04;67.32;96290.94;5034959;28;20293;-85
2021/09/07 05:18:52;;;;;;;7.82;7.05;;;;;;;15.95;68.23;96292.91;5017081;28;20217;-84
2021/09/07 05:21:18;;;;;;;8.23;7.43;;;;;;;15.86;68.03;96292.25;5016185;28;20203;-84
2021/09/07 05:23:46;;;;;;;7.97;7.28;;;;;;;15.85;67.63;96289.84;5015034;28;20202;-84
2021/09/07 05:26:13;;;;;;;7.57;6.88;;;;;;;15.85;68.36;96289.84;5014192;28;20226;-83
2021/09/07 05:28:39;;;;;;;8.10;7.40;;;;;;;15.89;68.62;96298.84;5014161;28;20210;-83
2021/09/07 05:31:06;;;;;;;8.37;6.70;;;;;;;15.96;68.27;96302.31;5013649;28;20203;-84
2021/09/07 05:33:32;;;;;;;7.25;6.55;;;;;;;15.95;68.11;96295.50;4998248;28;20204;-84
2021/09/07 05:35:59;;;;;;;25.75;22.75;;;;;;;15.97;68.59;96303.09;4993501;28;20202;-83
2021/09/07 05:38:25;;;;;;;12.65;10.07;;;;;;;16.01;68.24;96304.31;4993815;28;20203;-84
2021/09/07 05:40:53;;;;;;;8.50;7.60;;;;;;;16.09;67.97;96298.97;4994638;28;20215;-84
2021/09/07 05:43:20;;;;;;;8.77;7.97;;;;;;;16.04;68.27;96306.53;5008052;28;20230;-83
2021/09/07 05:45:46;;;;;;;9.02;7.07;;;;;;;16.11;68.65;96302.16;5010983;28;20234;-83
2021/09/07 05:48:13;;;;;;;7.97;7.25;;;;;;;16.02;70.21;96304.09;5013540;28;20223;-84
2021/09/07 05:50:39;;;;;;;9.05;7.50;;;;;;;15.96;70.43;96304.91;5012804;28;20211;-83
2021/09/07 05:53:06;;;;;;;9.10;7.97;;;;;;;15.85;70.81;96308.03;5012289;28;20678;-84
2021/09/07 05:55:33;;;;;;;11.98;8.07;;;;;;;15.81;72.05;96307.59;4998845;28;20207;-85
2021/09/07 05:58:00;;;;;;;7.53;6.82;;;;;;;16.02;71.25;96316.28;5004962;28;20305;-84
2021/09/07 06:00:27;;;;;;;9.10;7.63;;;;;;;16.03;71.51;96310.91;5021896;28;20203;-84
2021/09/07 06:02:57;;;;;;;12.10;7.65;;;;;;;16.14;71.32;96318.19;5036428;28;20195;-84
2021/09/07 06:05:24;;;;;;;9.88;8.00;;;;;;;16.35;70.11;96312.06;5012473;28;20203;-83
2021/09/07 06:07:50;;;;;;;9.32;8.10;;;;;;;16.48;70.53;96314.72;5001328;28;20220;-85
2021/09/07 06:10:16;;;;;;;9.55;8.00;;;;;;;16.67;69.77;96317.59;5000208;28;20227;-84
2021/09/07 06:12:43;;;;;;;8.95;7.30;;;;;;;16.86;69.32;96322.03;5009378;28;20209;-84
2021/09/07 06:15:14;;;;;;;36.85;29.63;;;;;;;16.94;69.09;96324.44;5020347;28;20202;-84
2021/09/07 06:17:45;;;;;;;34.35;26.83;;;;;;;17.07;68.49;96321.06;5018867;28;20269;-84
2021/09/07 06:20:12;;;;;;;16.85;12.90;;;;;;;17.21;68.25;96327.88;5020049;28;20585;-84
2021/09/07 06:22:39;;;;;;;12.38;8.50;;;;;;;17.33;67.57;96325.47;5019783;28;20205;-84
2021/09/07 06:25:07;;;;;;;10.93;7.95;;;;;;;17.37;67.72;96324.06;5023121;28;20202;-84
2021/09/07 06:27:33;;;;;;;10.93;7.43;;;;;;;17.42;67.37;96326.88;5017127;28;20313;-83
2021/09/07 06:29:59;;;;;;;8.13;6.93;;;;;;;17.38;68.00;96323.06;5003654;28;20196;-83
2021/09/07 06:32:27;;;;;;;8.32;7.28;;;;;;;17.49;67.40;96318.06;5012611;28;20209;-84
2021/09/07 06:34:54;;;;;;;9.15;7.90;;;;;;;17.54;67.70;96328.66;5022597;28;20209;-83
2021/09/07 06:37:20;;;;;;;8.48;7.68;;;;;;;17.63;67.10;96328.47;5021794;28;20219;-84
2021/09/07 06:39:47;;;;;;;7.70;6.90;;;;;;;17.59;67.61;96331.47;5021387;28;20214;-84
2021/09/07 06:42:13;;;;;;;8.20;7.25;;;;;;;17.70;67.52;96331.91;5023233;28;20223;-84
2021/09/07 06:44:40;;;;;;;12.82;11.50;;;;;;;17.83;67.37;96330.09;5024171;28;20206;-83
2021/09/07 06:47:06;;;;;;;8.30;7.35;;;;;;;17.91;67.40;96334.25;5023352;28;20223;-84
2021/09/07 06:49:34;;;;;;;9.13;8.07;;;;;;;17.93;67.78;96333.06;5023438;28;20286;-83
2021/09/07 06:52:00;;;;;;;11.70;7.43;;;;;;;17.99;67.03;96328.03;5021774;28;20880;-83
2021/09/07 06:54:27;;;;;;;9.60;7.63;;;;;;;18.18;66.38;96330.59;5022698;28;20195;-84
2021/09/07 06:56:53;;;;;;;8.43;6.85;;;;;;;18.13;66.24;96327.00;5023956;28;20226;-84
2021/09/07 06:59:20;;;;;;;8.02;7.25;;;;;;;18.27;66.17;96324.16;5021427;28;20209;-83
2021/09/07 07:01:46;;;;;;;9.50;7.88;;;;;;;18.39;65.86;96321.69;5021320;28;20203;-84
2021/09/07 07:04:13;;;;;;;9.93;7.78;;;;;;;18.56;65.27;96322.81;5016802;28;20222;-83
2021/09/07 07:06:40;;;;;;;9.30;6.80;;;;;;;18.76;65.12;96321.94;5016881;28;20234;-84
2021/09/07 07:09:07;;;;;;;8.48;7.68;;;;;;;18.95;65.07;96318.41;5021083;28;20213;-84
2021/09/07 07:11:33;;;;;;;8.52;7.63;;;;;;;19.05;65.12;96325.81;5019749;28;20238;-84
2021/09/07 07:14:00;;;;;;;10.15;7.40;;;;;;;18.98;65.63;96325.84;5021327;28;20203;-84
2021/09/07 07:16:26;;;;;;;8.60;7.55;;;;;;;18.95;65.14;96321.03;5040314;28;20221;-84
2021/09/07 07:18:53;;;;;;;10.38;8.52;;;;;;;19.10;63.93;96333.78;5012835;28;20206;-83
2021/09/07 07:21:19;;;;;;;8.80;7.95;;;;;;;19.16;63.75;96336.34;5006023;28;20689;-84
2021/09/07 07:23:47;;;;;;;9.40;8.30;;;;;;;19.08;64.11;96341.00;5020071;28;20203;-84
2021/09/07 07:26:13;;;;;;;10.88;8.32;;;;;;;19.22;64.15;96334.72;5018206;28;20222;-83
2021/09/07 07:28:40;;;;;;;21.77;18.77;;;;;;;19.40;64.02;96337.38;5000281;28;20199;-83
2021/09/07 07:31:06;;;;;;;11.98;10.35;;;;;;;19.60;63.90;96345.91;5019436;28;20217;-83
2021/09/07 07:33:33;;;;;;;10.57;9.23;;;;;;;19.61;63.79;96342.28;5019935;28;20203;-83
2021/09/07 07:35:59;;;;;;;9.80;8.80;;;;;;;19.73;63.20;96336.31;5019422;28;20203;-84
2021/09/07 07:38:26;;;;;;;11.52;9.10;;;;;;;19.89;62.70;96341.00;5012848;28;20215;-84
2021/09/07 07:40:53;;;;;;;10.82;8.80;;;;;;;20.08;62.92;96334.75;5010736;28;20205;-84
2021/09/07 07:43:24;;;;;;;13.07;9.40;;;;;;;20.26;61.77;96331.34;5018502;28;20210;-84
2021/09/07 07:45:51;;;;;;;13.00;9.32;;;;;;;20.47;61.76;96333.53;5002708;28;20208;-82
2021/09/07 07:48:17;;;;;;;9.82;8.82;;;;;;;20.63;61.27;96329.53;5010265;28;20258;-84
2021/09/07 07:50:44;;;;;;;12.55;9.18;;;;;;;20.80;60.18;96335.72;5019690;28;20612;-84
2021/09/07 07:53:10;;;;;;;50.20;44.92;;;;;;;20.85;60.87;96335.06;5004657;28;20199;-84
2021/09/07 07:55:36;;;;;;;25.55;22.75;;;;;;;21.15;60.93;96329.84;5014212;28;20195;-84
2021/09/07 07:58:04;;;;;;;15.50;12.90;;;;;;;21.45;59.69;96329.78;5018815;28;20215;-84
2021/09/07 08:00:31;;;;;;;10.45;9.40;;;;;;;21.58;59.34;96338.22;5012138;28;20195;-84
2021/09/07 08:02:57;;;;;;;12.68;9.27;;;;;;;21.71;58.75;96327.53;5019670;28;20692;-84
2021/09/07 08:05:24;;;;;;;10.27;9.18;;;;;;;21.82;57.15;96328.53;5018853;28;20395;-85
2021/09/07 08:07:50;;;;;;;11.30;9.43;;;;;;;22.11;56.48;96332.09;5002866;28;20231;-84
2021/09/07 08:10:17;;;;;;;11.35;9.07;;;;;;;22.17;55.18;96331.16;5016530;28;20203;-84
2021/09/07 08:12:44;;;;;;;13.68;9.40;;;;;;;22.33;55.55;96325.19;5007026;28;20191;-84
2021/09/07 08:15:13;;;;;;;11.32;8.88;;;;;;;22.57;54.73;96323.31;5013713;28;20271;-84
2021/09/07 08:17:39;;;;;;;10.50;8.50;;;;;;;22.85;54.53;96322.56;4998300;28;20219;-84
2021/09/07 08:20:08;;;;;;;10.73;8.65;;;;;;;22.94;54.91;96315.88;4998712;28;20204;-84
2021/09/07 08:22:34;;;;;;;9.45;8.55;;;;;;;23.00;55.35;96314.94;5014748;28;20214;-85
2021/09/07 08:25:01;;;;;;;10.45;8.98;;;;;;;23.14;53.75;96325.94;5015907;28;20225;-84
2021/09/07 08:27:27;;;;;;;10.40;9.30;;;;;;;23.28;53.19;96323.81;4998019;28;20236;-84
2021/09/07 08:29:54;;;;;;;10.43;8.30;;;;;;;23.55;53.46;96326.63;4997517;28;20204;-84
2021/09/07 08:32:21;;;;;;;13.13;9.80;;;;;;;23.71;51.76;96325.81;4997549;28;20214;-84
2021/09/07 08:34:48;;;;;;;12.23;9.45;;;;;;;23.75;52.51;96322.47;4998626;28;20215;-84
2021/09/07 08:37:14;;;;;;;11.18;8.68;;;;;;;23.98;52.75;96328.56;4997731;28;20219;-84
2021/09/07 08:39:41;;;;;;;10.27;8.27;;;;;;;24.23;52.79;96313.13;4998303;28;20212;-84
2021/09/07 08:42:12;;;;;;;9.68;8.68;;;;;;;24.37;51.23;96327.53;5009787;28;20206;-84
2021/09/07 08:44:38;;;;;;;12.55;9.20;;;;;;;24.43;50.47;96315.22;5019419;28;20206;-84
2021/09/07 08:47:13;;;;;;;10.43;9.43;;;;;;;24.56;50.31;96319.31;5020196;28;20219;-84
2021/09/07 08:49:41;;;;;;;12.40;8.45;;;;;;;24.72;50.72;96318.44;5009188;28;20213;-84
2021/09/07 08:52:07;;;;;;;10.15;8.40;;;;;;;24.92;50.49;96317.84;5011534;28;20199;-84
2021/09/07 08:54:34;;;;;;;11.82;8.07;;;;;;;24.97;49.86;96310.81;5019641;28;20210;-84
2021/09/07 08:57:00;;;;;;;9.02;7.97;;;;;;;24.87;48.38;96312.50;5020450;28;20227;-84
2021/09/07 08:59:27;;;;;;;11.38;7.82;;;;;;;25.02;49.54;96321.38;5020801;28;20213;-84
2021/09/07 09:01:56;;;;;;;10.25;7.72;;;;;;;25.23;48.20;96329.47;5020133;28;20203;-84
2021/09/07 09:04:28;;;;;;;7.88;7.07;;;;;;;25.37;47.80;96325.41;5020435;28;20264;-84
2021/09/07 09:06:56;;;;;;;8.98;8.13;;;;;;;25.57;46.82;96330.03;5017849;28;20226;-82
2021/09/07 09:09:34;;;;;;;12.40;8.60;;;;;;;25.63;45.90;96327.19;5017804;28;20214;-85
2021/09/07 09:12:00;;;;;;;8.27;7.47;;;;;;;25.72;46.43;96332.81;5015314;28;20191;-84
2021/09/07 09:14:34;;;;;;;8.55;6.72;;;;;;;25.79;44.93;96323.59;5008650;28;20194;-84
2021/09/07 09:17:01;;;;;;;7.97;6.80;;;;;;;25.81;43.76;96326.00;5023178;28;20229;-84
2021/09/07 09:19:27;;;;;;;9.52;6.82;;;;;;;25.92;43.18;96327.66;4999234;28;20215;-84
2021/09/07 09:21:55;;;;;;;6.82;6.10;;;;;;;25.84;43.63;96330.75;5019272;28;20191;-84
2021/09/07 09:24:23;;;;;;;8.18;6.40;;;;;;;25.75;42.98;96327.81;5018996;28;20215;-84
2021/09/07 09:26:52;;;;;;;7.05;6.40;;;;;;;25.83;44.42;96315.97;5003343;28;20227;-84
2021/09/07 09:29:23;;;;;;;7.13;6.53;;;;;;;25.58;40.74;96326.34;4996446;28;20203;-84
2021/09/07 09:31:51;;;;;;;7.32;6.60;;;;;;;25.54;40.72;96327.91;4996439;28;20707;-84
2021/09/07 09:34:18;;;;;;;6.97;6.32;;;;;;;25.61;41.15;96328.47;5010473;28;20210;-84
2021/09/07 09:36:54;;;;;;;6.47;5.90;;;;;;;25.47;39.81;96328.91;5011788;28;20311;-84
2021/09/07 09:39:53;;;;;;;6.40;5.80;;;;;;;25.36;38.97;96332.50;4997425;28;20214;-84
2021/09/07 09:42:24;;;;;;;6.75;6.15;;;;;;;25.52;40.64;96328.16;5012622;28;20199;-84
2021/09/07 09:45:00;;;;;;;8.00;5.90;;;;;;;25.66;41.59;96331.97;5019122;28;20593;-84
2021/09/07 09:47:38;;;;;;;9.68;6.10;;;;;;;25.73;41.42;96332.56;5010952;28;20227;-84
2021/09/07 09:50:05;;;;;;;6.60;6.00;;;;;;;25.91;41.97;96336.63;5009694;28;20202;-84
2021/09/07 09:52:35;;;;;;;7.00;6.40;;;;;;;25.68;40.25;96324.59;5015736;28;20195;-83
2021/09/07 09:55:03;;;;;;;7.20;6.20;;;;;;;25.63;38.91;96331.66;5017380;28;20198;-82
2021/09/07 09:57:30;;;;;;;6.97;6.28;;;;;;;25.54;39.10;96339.25;5016010;28;20226;-82
2021/09/07 09:59:58;;;;;;;9.10;5.82;;;;;;;25.41;38.25;96327.25;5018812;28;20206;-81
2021/09/07 10:02:25;;;;;;;6.18;5.55;;;;;;;25.25;38.97;96328.19;5019773;28;20206;-81
2021/09/07 10:04:52;;;;;;;6.03;5.50;;;;;;;25.11;39.61;96324.38;5019748;28;20203;-82
2021/09/07 10:07:18;;;;;;;6.47;5.88;;;;;;;25.30;41.43;96317.69;5003241;28;20257;-83
2021/09/07 10:09:48;;;;;;;7.07;6.25;;;;;;;25.45;41.46;96309.09;5012683;28;20206;-82
2021/09/07 10:12:23;;;;;;;7.00;6.38;;;;;;;25.35;41.15;96309.81;5020029;28;20203;-83
2021/09/07 10:14:56;;;;;;;7.45;6.68;;;;;;;25.24;41.11;96309.97;5018529;28;20204;-83
2021/09/07 10:17:29;;;;;;;7.40;6.72;;;;;;;25.33;41.85;96308.47;5022980;28;20258;-82
2021/09/07 10:25:55;;;;;;;6.53;5.97;;;;;;;25.32;40.99;96302.41;5020533;28;20259;-83
2021/09/07 10:28:37;;;;;;;6.85;6.25;;;;;;;25.42;40.12;96297.19;5021671;28;20236;-84
2021/09/07 10:31:07;;;;;;;6.80;6.18;;;;;;;25.15;39.55;96298.31;5018857;28;20206;-84
2021/09/07 10:33:38;;;;;;;6.95;6.18;;;;;;;25.35;40.49;96293.22;5005228;28;20227;-82
2021/09/07 10:36:10;;;;;;;7.07;6.38;;;;;;;25.66;40.34;96292.41;5000397;28;20231;-83
2021/09/07 10:38:38;;;;;;;7.50;6.10;;;;;;;25.80;40.61;96282.97;5019239;28;20228;-83
2021/09/07 10:41:05;;;;;;;7.43;6.28;;;;;;;25.84;40.85;96287.75;5014975;28;20206;-81
2021/09/07 10:43:56;;;;;;;15.88;14.40;;;;;;;25.62;40.17;96283.41;5000274;28;20207;-84
2021/09/07 10:46:46;;;;;;;8.10;7.40;;;;;;;25.48;40.90;96276.94;4996662;28;20227;-84
2021/09/07 10:49:15;;;;;;;8.23;6.22;;;;;;;25.21;40.49;96279.63;5007444;28;20218;-83
2021/09/07 10:55:15;;;;;;;6.75;6.13;;;;;;;24.76;42.62;96275.53;4995905;28;20208;-84
2021/09/07 10:57:46;;;;;;;6.45;5.90;;;;;;;24.62;42.50;96277.00;4990048;28;20227;-83
2021/09/07 11:03:09;;;;;;;7.25;6.55;;;;;;;24.97;42.59;96267.84;5131670;27;20534;-85
2021/09/07 11:05:40;;;;;;;7.85;6.40;;;;;;;25.13;43.07;96269.56;5129919;28;20589;-85
2021/09/07 11:08:09;;;;;;;8.50;6.60;;;;;;;25.00;41.51;96267.38;5130644;27;20962;-84
2021/09/07 11:10:38;;;;;;;6.82;6.22;;;;;;;25.23;42.18;96261.72;5129080;27;20205;-85
2021/09/07 11:13:07;;;;;;;6.68;6.07;;;;;;;25.35;40.84;96264.22;5131298;27;20252;-84
2021/09/07 11:15:35;;;;;;;7.45;6.85;;;;;;;25.24;41.36;96262.53;5121821;27;20203;-85
2021/09/07 11:18:04;;;;;;;6.45;5.90;;;;;;;25.10;41.84;96260.31;5130312;27;20219;-85
2021/09/07 11:20:35;;;;;;;7.05;6.35;;;;;;;24.83;41.25;96269.25;5124421;27;20206;-83
2021/09/07 11:23:09;;;;;;;6.88;6.28;;;;;;;24.67;43.40;96260.41;5112730;28;20268;-85
2021/09/07 11:25:37;;;;;;;6.38;5.75;;;;;;;24.66;42.87;96264.91;5130975;28;20262;-85
2021/09/07 11:28:05;;;;;;;6.82;5.97;;;;;;;24.68;41.42;96267.28;5133575;27;20222;-85
2021/09/07 11:30:33;;;;;;;7.00;6.30;;;;;;;24.81;41.45;96260.84;5133769;27;20229;-85
2021/09/07 11:33:03;;;;;;;6.63;5.95;;;;;;;24.71;41.33;96270.22;5132933;27;20206;-85
2021/09/07 11:35:33;;;;;;;7.00;6.32;;;;;;;24.73;41.66;96272.59;5133360;27;20206;-85
2021/09/07 11:38:01;;;;;;;6.18;5.68;;;;;;;24.63;43.34;96270.66;5132301;27;20226;-85
2021/09/07 11:40:28;;;;;;;6.70;6.10;;;;;;;24.66;43.15;96261.47;5132049;27;20205;-85
2021/09/07 11:42:55;;;;;;;7.43;6.72;;;;;;;24.71;43.32;96264.16;5131588;27;20227;-85
2021/09/07 11:45:25;;;;;;;6.50;5.90;;;;;;;24.88;43.48;96254.31;5132320;27;20196;-86
2021/09/07 11:47:53;;;;;;;6.90;6.30;;;;;;;25.00;43.54;96260.25;5131342;27;20223;-85